sensor_id;sensor_type;location;lat;lon;timestamp;P1;durP1;ratioP1;P2;durP2;ratioP2
29854;SDS011;16733;48.738;9.106;2023-07-24T00:10:12;8.25;;;4.78;;
29854;SDS011;16733;48.738;9.106;2023-07-24T00:12:38;10.65;;;4.45;;
29854;SDS011;16733;48.738;9.106;2023-07-24T00:15:05;11.15;;;4.70;;
29854;SDS011;16733;48.738;9.106;2023-07-24T00:17:31;8.77;;;4.65;;
29854;SDS011;16733;48.738;9.106;2023-07-24T00:23:00;9.60;;;4.95;;
29854;SDS011;16733;48.738;9.106;2023-07-24T00:25:26;8.90;;;4.47;;
29854;SDS011;16733;48.738;9.106;2023-07-24T00:40:07;11.85;;;5.43;;
29854;SDS011;16733;48.738;9.106;2023-07-24T00:42:33;9.05;;;5.25;;
29854;SDS011;16733;48.738;9.106;2023-07-24T00:48:02;8.18;;;4.50;;
29854;SDS011;16733;48.738;9.106;2023-07-24T00:50:30;10.40;;;4.95;;
29854;SDS011;16733;48.738;9.106;2023-07-24T00:59:03;9.32;;;5.28;;
29854;SDS011;16733;48.738;9.106;2023-07-24T01:01:29;8.80;;;5.05;;
29854;SDS011;16733;48.738;9.106;2023-07-24T01:06:59;11.07;;;5.68;;
29854;SDS011;16733;48.738;9.106;2023-07-24T01:09:25;7.72;;;5.00;;
29854;SDS011;16733;48.738;9.106;2023-07-24T01:27:09;8.48;;;4.63;;
29854;SDS011;16733;48.738;9.106;2023-07-24T01:32:39;8.73;;;5.15;;
29854;SDS011;16733;48.738;9.106;2023-07-24T01:35:05;9.40;;;5.30;;
29854;SDS011;16733;48.738;9.106;2023-07-24T01:40:35;11.35;;;4.97;;
29854;SDS011;16733;48.738;9.106;2023-07-24T01:49:08;10.13;;;5.32;;
29854;SDS011;16733;48.738;9.106;2023-07-24T01:54:37;7.90;;;4.82;;
29854;SDS011;16733;48.738;9.106;2023-07-24T02:00:07;7.72;;;4.50;;
29854;SDS011;16733;48.738;9.106;2023-07-24T02:02:33;9.45;;;5.18;;
29854;SDS011;16733;48.738;9.106;2023-07-24T02:08:03;9.43;;;5.03;;
29854;SDS011;16733;48.738;9.106;2023-07-24T02:16:36;11.38;;;4.82;;
29854;SDS011;16733;48.738;9.106;2023-07-24T02:25:10;9.55;;;5.20;;
29854;SDS011;16733;48.738;9.106;2023-07-24T02:27:35;10.02;;;4.85;;
29854;SDS011;16733;48.738;9.106;2023-07-24T02:36:09;9.25;;;4.97;;
29854;SDS011;16733;48.738;9.106;2023-07-24T02:47:46;9.98;;;5.03;;
29854;SDS011;16733;48.738;9.106;2023-07-24T02:50:12;8.80;;;4.90;;
29854;SDS011;16733;48.738;9.106;2023-07-24T02:52:38;9.45;;;4.65;;
29854;SDS011;16733;48.738;9.106;2023-07-24T02:55:04;8.23;;;4.55;;
29854;SDS011;16733;48.738;9.106;2023-07-24T03:06:41;11.90;;;6.03;;
29854;SDS011;16733;48.738;9.106;2023-07-24T03:12:10;10.13;;;4.88;;
29854;SDS011;16733;48.738;9.106;2023-07-24T03:14:36;9.77;;;4.72;;
29854;SDS011;16733;48.738;9.106;2023-07-24T03:17:05;7.72;;;4.32;;
29854;SDS011;16733;48.738;9.106;2023-07-24T03:22:35;11.57;;;4.95;;
29854;SDS011;16733;48.738;9.106;2023-07-24T03:28:05;8.32;;;4.68;;
29854;SDS011;16733;48.738;9.106;2023-07-24T03:30:30;9.20;;;4.97;;
29854;SDS011;16733;48.738;9.106;2023-07-24T03:42:11;7.82;;;4.30;;
29854;SDS011;16733;48.738;9.106;2023-07-24T03:44:41;10.70;;;4.93;;
29854;SDS011;16733;48.738;9.106;2023-07-24T03:47:07;13.68;;;4.78;;
29854;SDS011;16733;48.738;9.106;2023-07-24T03:52:37;12.52;;;5.15;;
29854;SDS011;16733;48.738;9.106;2023-07-24T03:55:03;11.88;;;4.63;;
29854;SDS011;16733;48.738;9.106;2023-07-24T04:03:36;10.52;;;5.05;;
29854;SDS011;16733;48.738;9.106;2023-07-24T04:12:09;12.30;;;5.28;;
29854;SDS011;16733;48.738;9.106;2023-07-24T04:14:35;8.70;;;4.68;;
29854;SDS011;16733;48.738;9.106;2023-07-24T04:17:01;9.38;;;5.13;;
29854;SDS011;16733;48.738;9.106;2023-07-24T04:19:27;8.65;;;4.45;;
29854;SDS011;16733;48.738;9.106;2023-07-24T04:31:04;10.32;;;5.22;;
29854;SDS011;16733;48.738;9.106;2023-07-24T04:33:30;12.15;;;5.03;;
29854;SDS011;16733;48.738;9.106;2023-07-24T04:38:59;9.25;;;5.25;;
29854;SDS011;16733;48.738;9.106;2023-07-24T04:50:36;11.77;;;4.57;;
29854;SDS011;16733;48.738;9.106;2023-07-24T04:53:02;9.27;;;4.55;;
29854;SDS011;16733;48.738;9.106;2023-07-24T04:58:32;8.98;;;4.03;;
29854;SDS011;16733;48.738;9.106;2023-07-24T05:07:05;11.68;;;5.22;;
29854;SDS011;16733;48.738;9.106;2023-07-24T05:09:31;9.25;;;4.82;;
29854;SDS011;16733;48.738;9.106;2023-07-24T05:15:01;11.00;;;4.55;;
29854;SDS011;16733;48.738;9.106;2023-07-24T05:17:27;8.57;;;5.05;;
29854;SDS011;16733;48.738;9.106;2023-07-24T05:22:56;11.00;;;4.45;;
29854;SDS011;16733;48.738;9.106;2023-07-24T05:31:30;8.82;;;4.72;;
29854;SDS011;16733;48.738;9.106;2023-07-24T05:36:59;13.48;;;5.38;;
29854;SDS011;16733;48.738;9.106;2023-07-24T05:45:33;9.63;;;5.43;;
29854;SDS011;16733;48.738;9.106;2023-07-24T05:54:06;11.48;;;4.80;;
29854;SDS011;16733;48.738;9.106;2023-07-24T05:56:32;15.40;;;5.28;;
29854;SDS011;16733;48.738;9.106;2023-07-24T06:08:09;11.90;;;4.88;;
29854;SDS011;16733;48.738;9.106;2023-07-24T06:10:36;9.50;;;4.88;;
29854;SDS011;16733;48.738;9.106;2023-07-24T06:13:02;7.68;;;4.60;;
29854;SDS011;16733;48.738;9.106;2023-07-24T06:21:35;11.02;;;4.43;;
29854;SDS011;16733;48.738;9.106;2023-07-24T06:24:01;10.10;;;5.32;;
29854;SDS011;16733;48.738;9.106;2023-07-24T06:29:31;9.45;;;4.82;;
29854;SDS011;16733;48.738;9.106;2023-07-24T06:41:08;9.55;;;5.18;;
29854;SDS011;16733;48.738;9.106;2023-07-24T06:43:34;8.75;;;4.70;;
29854;SDS011;16733;48.738;9.106;2023-07-24T06:49:04;7.55;;;4.65;;
29854;SDS011;16733;48.738;9.106;2023-07-24T06:51:30;10.93;;;5.00;;
29854;SDS011;16733;48.738;9.106;2023-07-24T07:03:07;9.68;;;5.70;;
29854;SDS011;16733;48.738;9.106;2023-07-24T07:05:33;8.52;;;5.10;;
29854;SDS011;16733;48.738;9.106;2023-07-24T07:14:06;10.75;;;5.20;;
29854;SDS011;16733;48.738;9.106;2023-07-24T07:22:40;10.07;;;4.97;;
29854;SDS011;16733;48.738;9.106;2023-07-24T07:25:06;9.15;;;4.95;;
29854;SDS011;16733;48.738;9.106;2023-07-24T07:27:32;8.50;;;5.00;;
29854;SDS011;16733;48.738;9.106;2023-07-24T07:39:09;7.78;;;4.50;;
29854;SDS011;16733;48.738;9.106;2023-07-24T07:49:40;8.88;;;4.47;;
29854;SDS011;16733;48.738;9.106;2023-07-24T07:52:06;10.75;;;4.80;;
29854;SDS011;16733;48.738;9.106;2023-07-24T07:54:32;13.65;;;4.70;;
29854;SDS011;16733;48.738;9.106;2023-07-24T07:56:58;14.50;;;4.75;;
29854;SDS011;16733;48.738;9.106;2023-07-24T07:59:25;9.90;;;5.15;;
29854;SDS011;16733;48.738;9.106;2023-07-24T08:01:51;15.45;;;5.80;;
29854;SDS011;16733;48.738;9.106;2023-07-24T08:04:17;10.45;;;4.70;;
29854;SDS011;16733;48.738;9.106;2023-07-24T08:06:43;8.27;;;4.85;;
29854;SDS011;16733;48.738;9.106;2023-07-24T08:09:09;9.77;;;4.53;;
29854;SDS011;16733;48.738;9.106;2023-07-24T08:11:35;9.27;;;4.70;;
29854;SDS011;16733;48.738;9.106;2023-07-24T08:14:01;11.23;;;5.35;;
29854;SDS011;16733;48.738;9.106;2023-07-24T08:16:27;13.88;;;5.25;;
29854;SDS011;16733;48.738;9.106;2023-07-24T08:18:53;8.60;;;4.82;;
29854;SDS011;16733;48.738;9.106;2023-07-24T08:21:19;8.35;;;5.05;;
29854;SDS011;16733;48.738;9.106;2023-07-24T08:23:45;14.63;;;5.55;;
29854;SDS011;16733;48.738;9.106;2023-07-24T08:26:11;11.48;;;5.53;;
29854;SDS011;16733;48.738;9.106;2023-07-24T08:28:37;26.90;;;5.63;;
29854;SDS011;16733;48.738;9.106;2023-07-24T08:31:07;10.90;;;5.82;;
29854;SDS011;16733;48.738;9.106;2023-07-24T08:33:33;16.60;;;5.47;;
29854;SDS011;16733;48.738;9.106;2023-07-24T08:35:59;9.80;;;5.25;;
29854;SDS011;16733;48.738;9.106;2023-07-24T08:38:26;10.93;;;5.70;;
29854;SDS011;16733;48.738;9.106;2023-07-24T08:41:05;15.55;;;5.38;;
29854;SDS011;16733;48.738;9.106;2023-07-24T08:43:31;11.75;;;5.28;;
29854;SDS011;16733;48.738;9.106;2023-07-24T08:45:58;12.85;;;5.68;;
29854;SDS011;16733;48.738;9.106;2023-07-24T08:48:25;11.70;;;5.65;;
29854;SDS011;16733;48.738;9.106;2023-07-24T08:50:52;13.63;;;5.80;;
29854;SDS011;16733;48.738;9.106;2023-07-24T08:53:19;11.80;;;5.20;;
29854;SDS011;16733;48.738;9.106;2023-07-24T08:55:46;7.90;;;4.50;;
29854;SDS011;16733;48.738;9.106;2023-07-24T08:58:14;14.02;;;5.20;;
29854;SDS011;16733;48.738;9.106;2023-07-24T09:00:40;7.55;;;4.55;;
29854;SDS011;16733;48.738;9.106;2023-07-24T09:03:06;8.32;;;5.05;;
29854;SDS011;16733;48.738;9.106;2023-07-24T09:05:33;11.63;;;5.50;;
29854;SDS011;16733;48.738;9.106;2023-07-24T09:07:59;10.13;;;5.30;;
29854;SDS011;16733;48.738;9.106;2023-07-24T09:10:25;14.38;;;5.60;;
29854;SDS011;16733;48.738;9.106;2023-07-24T09:12:51;10.48;;;5.28;;
29854;SDS011;16733;48.738;9.106;2023-07-24T09:15:17;13.65;;;5.25;;
29854;SDS011;16733;48.738;9.106;2023-07-24T09:17:50;10.15;;;4.95;;
29854;SDS011;16733;48.738;9.106;2023-07-24T09:20:16;9.75;;;4.53;;
29854;SDS011;16733;48.738;9.106;2023-07-24T09:22:49;13.95;;;5.28;;
29854;SDS011;16733;48.738;9.106;2023-07-24T09:25:15;8.82;;;4.10;;
29854;SDS011;16733;48.738;9.106;2023-07-24T09:27:41;8.00;;;4.20;;
29854;SDS011;16733;48.738;9.106;2023-07-24T09:30:13;8.38;;;4.15;;
29854;SDS011;16733;48.738;9.106;2023-07-24T09:32:40;10.32;;;3.63;;
29854;SDS011;16733;48.738;9.106;2023-07-24T09:35:18;6.18;;;3.70;;
29854;SDS011;16733;48.738;9.106;2023-07-24T09:37:44;8.07;;;3.63;;
29854;SDS011;16733;48.738;9.106;2023-07-24T09:40:11;13.23;;;4.32;;
29854;SDS011;16733;48.738;9.106;2023-07-24T09:42:38;6.03;;;3.85;;
29854;SDS011;16733;48.738;9.106;2023-07-24T09:45:05;9.55;;;4.45;;
29854;SDS011;16733;48.738;9.106;2023-07-24T09:47:33;9.30;;;3.45;;
29854;SDS011;16733;48.738;9.106;2023-07-24T09:49:59;7.28;;;3.38;;
29854;SDS011;16733;48.738;9.106;2023-07-24T09:52:27;8.57;;;3.92;;
29854;SDS011;16733;48.738;9.106;2023-07-24T09:57:39;10.25;;;3.60;;
29854;SDS011;16733;48.738;9.106;2023-07-24T10:00:05;14.55;;;4.18;;
29854;SDS011;16733;48.738;9.106;2023-07-24T10:02:32;7.72;;;4.45;;
29854;SDS011;16733;48.738;9.106;2023-07-24T10:04:58;7.88;;;4.00;;
29854;SDS011;16733;48.738;9.106;2023-07-24T10:07:24;7.32;;;3.53;;
29854;SDS011;16733;48.738;9.106;2023-07-24T10:09:51;7.00;;;3.83;;
29854;SDS011;16733;48.738;9.106;2023-07-24T10:12:17;6.90;;;3.58;;
29854;SDS011;16733;48.738;9.106;2023-07-24T10:14:44;7.88;;;3.83;;
29854;SDS011;16733;48.738;9.106;2023-07-24T10:17:11;11.35;;;4.25;;
29854;SDS011;16733;48.738;9.106;2023-07-24T10:19:43;6.85;;;3.80;;
29854;SDS011;16733;48.738;9.106;2023-07-24T10:22:10;8.10;;;4.15;;
29854;SDS011;16733;48.738;9.106;2023-07-24T10:24:43;10.25;;;4.45;;
29854;SDS011;16733;48.738;9.106;2023-07-24T10:27:10;8.82;;;4.32;;
29854;SDS011;16733;48.738;9.106;2023-07-24T10:29:36;10.82;;;4.28;;
29854;SDS011;16733;48.738;9.106;2023-07-24T10:32:04;9.57;;;4.00;;
29854;SDS011;16733;48.738;9.106;2023-07-24T10:34:39;10.02;;;4.28;;
29854;SDS011;16733;48.738;9.106;2023-07-24T10:37:07;11.18;;;4.28;;
29854;SDS011;16733;48.738;9.106;2023-07-24T10:39:37;9.60;;;4.68;;
29854;SDS011;16733;48.738;9.106;2023-07-24T10:42:05;9.40;;;4.88;;
29854;SDS011;16733;48.738;9.106;2023-07-24T10:44:31;7.88;;;4.25;;
29854;SDS011;16733;48.738;9.106;2023-07-24T10:46:57;10.25;;;4.50;;
29854;SDS011;16733;48.738;9.106;2023-07-24T10:49:23;10.27;;;4.63;;
29854;SDS011;16733;48.738;9.106;2023-07-24T10:51:54;10.00;;;4.85;;
29854;SDS011;16733;48.738;9.106;2023-07-24T10:54:21;9.95;;;4.50;;
29854;SDS011;16733;48.738;9.106;2023-07-24T10:56:47;9.98;;;4.88;;
29854;SDS011;16733;48.738;9.106;2023-07-24T10:59:13;14.02;;;5.30;;
29854;SDS011;16733;48.738;9.106;2023-07-24T11:01:42;33.53;;;5.20;;
29854;SDS011;16733;48.738;9.106;2023-07-24T11:04:08;14.15;;;5.45;;
29854;SDS011;16733;48.738;9.106;2023-07-24T11:06:37;10.40;;;5.25;;
29854;SDS011;16733;48.738;9.106;2023-07-24T11:09:03;17.90;;;5.68;;
29854;SDS011;16733;48.738;9.106;2023-07-24T11:11:29;10.05;;;5.07;;
29854;SDS011;16733;48.738;9.106;2023-07-24T11:13:56;9.55;;;4.82;;
29854;SDS011;16733;48.738;9.106;2023-07-24T11:16:22;11.18;;;5.28;;
29854;SDS011;16733;48.738;9.106;2023-07-24T11:18:49;12.18;;;4.93;;
29854;SDS011;16733;48.738;9.106;2023-07-24T11:21:16;11.23;;;4.78;;
29854;SDS011;16733;48.738;9.106;2023-07-24T11:23:46;10.90;;;5.45;;
29854;SDS011;16733;48.738;9.106;2023-07-24T11:26:13;8.80;;;4.53;;
29854;SDS011;16733;48.738;9.106;2023-07-24T11:28:39;8.73;;;4.72;;
29854;SDS011;16733;48.738;9.106;2023-07-24T11:31:05;9.65;;;4.95;;
29854;SDS011;16733;48.738;9.106;2023-07-24T11:33:31;12.45;;;5.43;;
29854;SDS011;16733;48.738;9.106;2023-07-24T11:35:58;10.25;;;5.07;;
29854;SDS011;16733;48.738;9.106;2023-07-24T11:38:24;11.05;;;4.95;;
29854;SDS011;16733;48.738;9.106;2023-07-24T11:40:50;12.60;;;6.00;;
29854;SDS011;16733;48.738;9.106;2023-07-24T11:43:17;12.40;;;5.30;;
29854;SDS011;16733;48.738;9.106;2023-07-24T11:45:43;12.77;;;5.30;;
29854;SDS011;16733;48.738;9.106;2023-07-24T11:48:10;10.73;;;5.40;;
29854;SDS011;16733;48.738;9.106;2023-07-24T11:53:32;16.27;;;5.53;;
29854;SDS011;16733;48.738;9.106;2023-07-24T11:55:58;9.15;;;4.88;;
29854;SDS011;16733;48.738;9.106;2023-07-24T11:58:26;9.25;;;4.60;;
29854;SDS011;16733;48.738;9.106;2023-07-24T12:00:52;9.27;;;4.90;;
29854;SDS011;16733;48.738;9.106;2023-07-24T12:03:19;11.27;;;4.93;;
29854;SDS011;16733;48.738;9.106;2023-07-24T12:05:46;14.00;;;4.95;;
29854;SDS011;16733;48.738;9.106;2023-07-24T12:08:12;10.50;;;5.22;;
29854;SDS011;16733;48.738;9.106;2023-07-24T12:10:43;9.18;;;4.30;;
29854;SDS011;16733;48.738;9.106;2023-07-24T12:13:09;8.70;;;4.88;;
29854;SDS011;16733;48.738;9.106;2023-07-24T12:15:36;11.82;;;4.93;;
29854;SDS011;16733;48.738;9.106;2023-07-24T12:18:03;8.07;;;4.82;;
29854;SDS011;16733;48.738;9.106;2023-07-24T12:20:29;9.18;;;4.25;;
29854;SDS011;16733;48.738;9.106;2023-07-24T12:22:56;7.20;;;4.20;;
29854;SDS011;16733;48.738;9.106;2023-07-24T12:25:22;6.80;;;3.70;;
29854;SDS011;16733;48.738;9.106;2023-07-24T12:27:48;10.88;;;4.72;;
29854;SDS011;16733;48.738;9.106;2023-07-24T12:30:14;9.02;;;4.85;;
29854;SDS011;16733;48.738;9.106;2023-07-24T12:32:40;9.43;;;4.63;;
29854;SDS011;16733;48.738;9.106;2023-07-24T12:35:09;6.57;;;4.10;;
29854;SDS011;16733;48.738;9.106;2023-07-24T12:37:35;6.60;;;4.18;;
29854;SDS011;16733;48.738;9.106;2023-07-24T12:40:01;9.15;;;4.57;;
29854;SDS011;16733;48.738;9.106;2023-07-24T12:42:28;7.63;;;4.18;;
29854;SDS011;16733;48.738;9.106;2023-07-24T12:44:54;6.32;;;3.85;;
29854;SDS011;16733;48.738;9.106;2023-07-24T12:47:20;10.90;;;5.00;;
29854;SDS011;16733;48.738;9.106;2023-07-24T12:49:46;6.85;;;4.35;;
29854;SDS011;16733;48.738;9.106;2023-07-24T12:52:12;6.20;;;3.88;;
29854;SDS011;16733;48.738;9.106;2023-07-24T12:54:38;8.55;;;4.20;;
29854;SDS011;16733;48.738;9.106;2023-07-24T12:57:04;9.35;;;4.00;;
29854;SDS011;16733;48.738;9.106;2023-07-24T12:59:30;9.85;;;4.18;;
29854;SDS011;16733;48.738;9.106;2023-07-24T13:01:56;8.52;;;4.00;;
29854;SDS011;16733;48.738;9.106;2023-07-24T13:04:22;6.10;;;3.63;;
29854;SDS011;16733;48.738;9.106;2023-07-24T13:06:49;6.30;;;3.75;;
29854;SDS011;16733;48.738;9.106;2023-07-24T13:09:15;4.72;;;3.13;;
29854;SDS011;16733;48.738;9.106;2023-07-24T13:11:41;6.57;;;3.47;;
29854;SDS011;16733;48.738;9.106;2023-07-24T13:14:07;6.13;;;3.35;;
29854;SDS011;16733;48.738;9.106;2023-07-24T13:16:33;5.65;;;3.30;;
29854;SDS011;16733;48.738;9.106;2023-07-24T13:18:59;8.63;;;3.63;;
29854;SDS011;16733;48.738;9.106;2023-07-24T13:21:25;6.57;;;3.45;;
29854;SDS011;16733;48.738;9.106;2023-07-24T13:23:51;5.38;;;3.28;;
29854;SDS011;16733;48.738;9.106;2023-07-24T13:26:17;5.72;;;3.33;;
29854;SDS011;16733;48.738;9.106;2023-07-24T13:28:43;6.45;;;3.15;;
29854;SDS011;16733;48.738;9.106;2023-07-24T13:31:13;6.00;;;3.35;;
29854;SDS011;16733;48.738;9.106;2023-07-24T13:33:39;6.25;;;3.38;;
29854;SDS011;16733;48.738;9.106;2023-07-24T13:36:05;6.00;;;3.35;;
29854;SDS011;16733;48.738;9.106;2023-07-24T13:38:31;6.07;;;3.00;;
29854;SDS011;16733;48.738;9.106;2023-07-24T13:40:57;7.72;;;2.88;;
29854;SDS011;16733;48.738;9.106;2023-07-24T13:43:23;4.70;;;2.65;;
29854;SDS011;16733;48.738;9.106;2023-07-24T13:45:49;5.30;;;3.10;;
29854;SDS011;16733;48.738;9.106;2023-07-24T13:48:15;4.28;;;2.25;;
29854;SDS011;16733;48.738;9.106;2023-07-24T13:50:42;5.00;;;2.80;;
29854;SDS011;16733;48.738;9.106;2023-07-24T13:53:08;5.38;;;2.80;;
29854;SDS011;16733;48.738;9.106;2023-07-24T13:55:34;8.00;;;2.90;;
29854;SDS011;16733;48.738;9.106;2023-07-24T13:58:00;7.70;;;2.90;;
29854;SDS011;16733;48.738;9.106;2023-07-24T14:00:26;5.13;;;2.90;;
29854;SDS011;16733;48.738;9.106;2023-07-24T14:02:52;7.40;;;3.15;;
29854;SDS011;16733;48.738;9.106;2023-07-24T14:05:18;6.55;;;2.55;;
29854;SDS011;16733;48.738;9.106;2023-07-24T14:07:44;4.15;;;2.47;;
29854;SDS011;16733;48.738;9.106;2023-07-24T14:10:10;4.55;;;2.70;;
29854;SDS011;16733;48.738;9.106;2023-07-24T14:12:36;4.80;;;2.70;;
29854;SDS011;16733;48.738;9.106;2023-07-24T14:15:02;3.65;;;2.13;;
29854;SDS011;16733;48.738;9.106;2023-07-24T14:17:28;4.43;;;2.30;;
29854;SDS011;16733;48.738;9.106;2023-07-24T14:19:54;4.43;;;2.40;;
29854;SDS011;16733;48.738;9.106;2023-07-24T14:22:20;4.53;;;2.30;;
29854;SDS011;16733;48.738;9.106;2023-07-24T14:24:46;4.05;;;2.45;;
29854;SDS011;16733;48.738;9.106;2023-07-24T14:27:13;6.50;;;2.40;;
29854;SDS011;16733;48.738;9.106;2023-07-24T14:29:39;3.20;;;2.10;;
29854;SDS011;16733;48.738;9.106;2023-07-24T14:32:05;3.95;;;2.42;;
29854;SDS011;16733;48.738;9.106;2023-07-24T14:34:31;6.10;;;2.70;;
29854;SDS011;16733;48.738;9.106;2023-07-24T14:36:57;4.00;;;2.13;;
29854;SDS011;16733;48.738;9.106;2023-07-24T14:39:23;3.90;;;2.60;;
29854;SDS011;16733;48.738;9.106;2023-07-24T14:41:49;4.43;;;2.17;;
29854;SDS011;16733;48.738;9.106;2023-07-24T14:44:15;4.00;;;2.20;;
29854;SDS011;16733;48.738;9.106;2023-07-24T14:46:41;5.15;;;2.20;;
29854;SDS011;16733;48.738;9.106;2023-07-24T14:49:07;4.07;;;2.40;;
29854;SDS011;16733;48.738;9.106;2023-07-24T14:51:33;4.18;;;2.05;;
29854;SDS011;16733;48.738;9.106;2023-07-24T14:53:59;4.80;;;2.50;;
29854;SDS011;16733;48.738;9.106;2023-07-24T14:56:25;5.50;;;2.53;;
29854;SDS011;16733;48.738;9.106;2023-07-24T14:58:51;4.35;;;2.58;;
29854;SDS011;16733;48.738;9.106;2023-07-24T15:01:17;6.15;;;2.30;;
29854;SDS011;16733;48.738;9.106;2023-07-24T15:03:43;4.00;;;2.10;;
29854;SDS011;16733;48.738;9.106;2023-07-24T15:06:09;4.72;;;2.30;;
29854;SDS011;16733;48.738;9.106;2023-07-24T15:08:35;3.55;;;2.08;;
29854;SDS011;16733;48.738;9.106;2023-07-24T15:11:01;4.05;;;2.25;;
29854;SDS011;16733;48.738;9.106;2023-07-24T15:13:27;3.30;;;2.17;;
29854;SDS011;16733;48.738;9.106;2023-07-24T15:15:53;4.43;;;2.10;;
29854;SDS011;16733;48.738;9.106;2023-07-24T15:18:19;4.00;;;2.35;;
29854;SDS011;16733;48.738;9.106;2023-07-24T15:20:45;4.68;;;1.85;;
29854;SDS011;16733;48.738;9.106;2023-07-24T15:23:11;4.43;;;2.05;;
29854;SDS011;16733;48.738;9.106;2023-07-24T15:25:38;3.55;;;2.15;;
29854;SDS011;16733;48.738;9.106;2023-07-24T15:28:04;3.65;;;1.98;;
29854;SDS011;16733;48.738;9.106;2023-07-24T15:30:31;4.10;;;2.20;;
29854;SDS011;16733;48.738;9.106;2023-07-24T15:32:57;4.40;;;2.28;;
29854;SDS011;16733;48.738;9.106;2023-07-24T15:35:23;3.50;;;2.40;;
29854;SDS011;16733;48.738;9.106;2023-07-24T15:37:49;4.60;;;2.03;;
29854;SDS011;16733;48.738;9.106;2023-07-24T15:40:15;4.80;;;2.30;;
29854;SDS011;16733;48.738;9.106;2023-07-24T15:42:41;6.65;;;2.55;;
29854;SDS011;16733;48.738;9.106;2023-07-24T15:45:08;3.08;;;1.95;;
29854;SDS011;16733;48.738;9.106;2023-07-24T15:47:34;3.47;;;2.15;;
29854;SDS011;16733;48.738;9.106;2023-07-24T15:50:00;6.38;;;2.53;;
29854;SDS011;16733;48.738;9.106;2023-07-24T15:52:29;5.30;;;1.90;;
29854;SDS011;16733;48.738;9.106;2023-07-24T15:54:55;3.90;;;2.20;;
29854;SDS011;16733;48.738;9.106;2023-07-24T15:57:21;5.15;;;2.03;;
29854;SDS011;16733;48.738;9.106;2023-07-24T15:59:47;3.97;;;2.20;;
29854;SDS011;16733;48.738;9.106;2023-07-24T16:02:13;5.25;;;2.60;;
29854;SDS011;16733;48.738;9.106;2023-07-24T16:04:39;4.45;;;2.40;;
29854;SDS011;16733;48.738;9.106;2023-07-24T16:07:05;6.18;;;2.67;;
29854;SDS011;16733;48.738;9.106;2023-07-24T16:09:31;3.78;;;2.05;;
29854;SDS011;16733;48.738;9.106;2023-07-24T16:11:57;3.15;;;1.80;;
29854;SDS011;16733;48.738;9.106;2023-07-24T16:14:23;5.63;;;2.30;;
29854;SDS011;16733;48.738;9.106;2023-07-24T16:16:49;4.93;;;2.47;;
29854;SDS011;16733;48.738;9.106;2023-07-24T16:19:16;4.28;;;2.10;;
29854;SDS011;16733;48.738;9.106;2023-07-24T16:21:43;5.28;;;2.60;;
29854;SDS011;16733;48.738;9.106;2023-07-24T16:24:10;3.83;;;2.30;;
29854;SDS011;16733;48.738;9.106;2023-07-24T16:26:36;3.88;;;2.13;;
29854;SDS011;16733;48.738;9.106;2023-07-24T16:29:03;4.60;;;2.72;;
29854;SDS011;16733;48.738;9.106;2023-07-24T16:31:29;3.97;;;2.55;;
29854;SDS011;16733;48.738;9.106;2023-07-24T16:33:55;4.85;;;2.38;;
29854;SDS011;16733;48.738;9.106;2023-07-24T16:36:21;4.03;;;2.08;;
29854;SDS011;16733;48.738;9.106;2023-07-24T16:38:47;4.53;;;2.72;;
29854;SDS011;16733;48.738;9.106;2023-07-24T16:41:13;9.40;;;2.30;;
29854;SDS011;16733;48.738;9.106;2023-07-24T16:43:39;6.43;;;2.45;;
29854;SDS011;16733;48.738;9.106;2023-07-24T16:46:05;3.75;;;2.30;;
29854;SDS011;16733;48.738;9.106;2023-07-24T16:48:31;4.68;;;2.58;;
29854;SDS011;16733;48.738;9.106;2023-07-24T16:50:58;4.90;;;2.95;;
29854;SDS011;16733;48.738;9.106;2023-07-24T16:53:24;6.20;;;2.75;;
29854;SDS011;16733;48.738;9.106;2023-07-24T16:55:50;6.45;;;2.53;;
29854;SDS011;16733;48.738;9.106;2023-07-24T16:58:16;3.83;;;2.40;;
29854;SDS011;16733;48.738;9.106;2023-07-24T17:00:42;4.75;;;2.97;;
29854;SDS011;16733;48.738;9.106;2023-07-24T17:03:08;3.97;;;2.53;;
29854;SDS011;16733;48.738;9.106;2023-07-24T17:05:34;4.43;;;2.45;;
29854;SDS011;16733;48.738;9.106;2023-07-24T17:08:00;3.70;;;2.00;;
29854;SDS011;16733;48.738;9.106;2023-07-24T17:10:29;6.38;;;2.75;;
29854;SDS011;16733;48.738;9.106;2023-07-24T17:12:55;4.75;;;2.40;;
29854;SDS011;16733;48.738;9.106;2023-07-24T17:15:21;3.55;;;2.40;;
29854;SDS011;16733;48.738;9.106;2023-07-24T17:17:48;4.15;;;2.50;;
29854;SDS011;16733;48.738;9.106;2023-07-24T17:20:15;4.32;;;2.70;;
29854;SDS011;16733;48.738;9.106;2023-07-24T17:22:41;5.35;;;2.90;;
29854;SDS011;16733;48.738;9.106;2023-07-24T17:25:07;7.30;;;2.75;;
29854;SDS011;16733;48.738;9.106;2023-07-24T17:27:33;6.35;;;2.92;;
29854;SDS011;16733;48.738;9.106;2023-07-24T17:30:01;7.43;;;2.95;;
29854;SDS011;16733;48.738;9.106;2023-07-24T17:32:27;4.63;;;2.67;;
29854;SDS011;16733;48.738;9.106;2023-07-24T17:34:53;4.60;;;2.25;;
29854;SDS011;16733;48.738;9.106;2023-07-24T17:37:19;5.25;;;2.47;;
29854;SDS011;16733;48.738;9.106;2023-07-24T17:39:45;3.05;;;1.70;;
29854;SDS011;16733;48.738;9.106;2023-07-24T17:42:11;3.83;;;1.60;;
29854;SDS011;16733;48.738;9.106;2023-07-24T17:44:37;3.33;;;1.50;;
29854;SDS011;16733;48.738;9.106;2023-07-24T17:47:03;4.00;;;1.40;;
29854;SDS011;16733;48.738;9.106;2023-07-24T17:49:29;3.47;;;1.42;;
29854;SDS011;16733;48.738;9.106;2023-07-24T17:51:55;2.92;;;1.42;;
29854;SDS011;16733;48.738;9.106;2023-07-24T17:54:21;1.60;;;1.13;;
29854;SDS011;16733;48.738;9.106;2023-07-24T17:56:47;2.83;;;1.33;;
29854;SDS011;16733;48.738;9.106;2023-07-24T17:59:13;2.45;;;1.25;;
29854;SDS011;16733;48.738;9.106;2023-07-24T18:01:39;3.22;;;1.30;;
29854;SDS011;16733;48.738;9.106;2023-07-24T18:04:05;2.10;;;1.30;;
29854;SDS011;16733;48.738;9.106;2023-07-24T18:06:33;1.98;;;1.40;;
29854;SDS011;16733;48.738;9.106;2023-07-24T18:08:59;2.00;;;1.30;;
29854;SDS011;16733;48.738;9.106;2023-07-24T18:11:25;2.92;;;1.35;;
29854;SDS011;16733;48.738;9.106;2023-07-24T18:13:51;2.08;;;1.13;;
29854;SDS011;16733;48.738;9.106;2023-07-24T18:16:17;1.27;;;1.00;;
29854;SDS011;16733;48.738;9.106;2023-07-24T18:18:43;2.60;;;1.42;;
29854;SDS011;16733;48.738;9.106;2023-07-24T18:21:09;3.42;;;1.20;;
29854;SDS011;16733;48.738;9.106;2023-07-24T18:23:35;2.05;;;1.15;;
29854;SDS011;16733;48.738;9.106;2023-07-24T18:26:01;3.63;;;1.70;;
29854;SDS011;16733;48.738;9.106;2023-07-24T18:28:27;1.95;;;1.23;;
29854;SDS011;16733;48.738;9.106;2023-07-24T18:30:53;2.05;;;1.25;;
29854;SDS011;16733;48.738;9.106;2023-07-24T18:33:19;2.88;;;1.35;;
29854;SDS011;16733;48.738;9.106;2023-07-24T18:35:45;2.05;;;1.33;;
29854;SDS011;16733;48.738;9.106;2023-07-24T18:38:11;2.50;;;1.30;;
29854;SDS011;16733;48.738;9.106;2023-07-24T18:40:37;1.27;;;1.10;;
29854;SDS011;16733;48.738;9.106;2023-07-24T18:43:03;2.85;;;1.00;;
29854;SDS011;16733;48.738;9.106;2023-07-24T18:45:29;1.42;;;0.82;;
29854;SDS011;16733;48.738;9.106;2023-07-24T18:47:55;1.90;;;0.90;;
29854;SDS011;16733;48.738;9.106;2023-07-24T18:50:22;1.30;;;1.00;;
29854;SDS011;16733;48.738;9.106;2023-07-24T18:52:49;2.42;;;1.25;;
29854;SDS011;16733;48.738;9.106;2023-07-24T18:55:15;1.63;;;1.00;;
29854;SDS011;16733;48.738;9.106;2023-07-24T18:57:40;1.40;;;0.95;;
29854;SDS011;16733;48.738;9.106;2023-07-24T19:00:07;2.15;;;1.25;;
29854;SDS011;16733;48.738;9.106;2023-07-24T19:02:33;0.70;;;0.70;;
29854;SDS011;16733;48.738;9.106;2023-07-24T19:04:59;2.53;;;0.90;;
29854;SDS011;16733;48.738;9.106;2023-07-24T19:07:25;3.47;;;0.90;;
29854;SDS011;16733;48.738;9.106;2023-07-24T19:09:51;1.33;;;0.90;;
29854;SDS011;16733;48.738;9.106;2023-07-24T19:12:17;4.95;;;1.10;;
29854;SDS011;16733;48.738;9.106;2023-07-24T19:14:43;1.38;;;0.85;;